createdAt,value
2019-05-29T00:02:06.410Z,59.40
2019-05-29T00:04:33.464Z,59.80
2019-05-29T00:07:01.317Z,59.70
2019-05-29T00:09:28.501Z,59.70
2019-05-29T00:11:55.597Z,59.80
2019-05-29T00:14:27.128Z,60.50
2019-05-29T00:16:51.105Z,60.60
2019-05-29T00:19:18.723Z,60.90
2019-05-29T00:21:45.608Z,61.10
2019-05-29T00:24:12.555Z,61.30
2019-05-29T00:26:39.850Z,61.10
2019-05-29T00:29:07.512Z,61.10
2019-05-29T00:31:34.436Z,61.30
2019-05-29T00:34:01.513Z,61.40
2019-05-29T00:36:28.530Z,61.60
2019-05-29T00:38:55.799Z,61.60
2019-05-29T00:41:22.838Z,61.60
2019-05-29T00:43:50.098Z,61.50
2019-05-29T00:46:17.634Z,61.40
2019-05-29T00:48:44.883Z,61.40
2019-05-29T00:51:11.717Z,61.90
2019-05-29T00:53:41.338Z,61.70
2019-05-29T00:56:16.692Z,62.00
2019-05-29T00:58:43.653Z,62.00
2019-05-29T01:01:11.414Z,62.00
2019-05-29T01:03:38.429Z,61.70
2019-05-29T01:06:05.276Z,61.50
2019-05-29T01:08:32.177Z,62.70
2019-05-29T01:10:59.049Z,61.60
2019-05-29T01:13:27.769Z,61.80
2019-05-29T01:15:54.510Z,62.10
2019-05-29T01:18:22.365Z,62.50
2019-05-29T01:20:49.528Z,62.20
2019-05-29T01:23:16.287Z,62.10
2019-05-29T01:25:43.512Z,61.70
2019-05-29T01:28:12.680Z,62.00
2019-05-29T01:30:39.502Z,62.00
2019-05-29T01:33:06.238Z,62.00
2019-05-29T01:35:33.081Z,62.40
2019-05-29T01:38:00.042Z,61.40
2019-05-29T01:40:29.414Z,62.40
2019-05-29T01:42:55.683Z,62.50
2019-05-29T01:45:23.498Z,62.50
2019-05-29T01:47:51.651Z,63.10
2019-05-29T01:50:19.386Z,63.00
2019-05-29T01:52:46.363Z,63.30
2019-05-29T01:55:13.179Z,63.70
2019-05-29T01:57:40.085Z,63.70
2019-05-29T02:00:07.816Z,63.40
2019-05-29T02:02:34.762Z,63.90
2019-05-29T02:05:02.349Z,63.50
2019-05-29T02:07:29.060Z,63.50
2019-05-29T02:09:56.043Z,63.80
2019-05-29T02:12:23.024Z,63.50
2019-05-29T02:14:49.747Z,63.80
2019-05-29T02:17:19.602Z,63.50
2019-05-29T02:19:45.548Z,63.40
2019-05-29T02:22:12.322Z,63.40
2019-05-29T02:24:39.114Z,63.30
2019-05-29T02:27:06.143Z,63.70
2019-05-29T02:29:33.036Z,64.10
2019-05-29T02:31:59.816Z,63.30
2019-05-29T02:34:27.935Z,62.90
2019-05-29T02:36:55.877Z,62.90
2019-05-29T02:39:23.017Z,63.30
2019-05-29T02:41:51.087Z,64.00
2019-05-29T02:44:19.170Z,64.10
2019-05-29T02:46:48.987Z,64.10
2019-05-29T02:49:16.604Z,63.60
2019-05-29T02:51:43.710Z,64.30
2019-05-29T02:54:10.634Z,64.10
2019-05-29T02:56:37.363Z,64.30
2019-05-29T02:59:04.549Z,64.30
2019-05-29T03:01:31.898Z,64.10
2019-05-29T03:04:00.348Z,64.40
2019-05-29T03:06:28.129Z,64.40
2019-05-29T03:08:55.688Z,64.70
2019-05-29T03:11:23.066Z,65.20
2019-05-29T03:13:50.665Z,65.30
2019-05-29T03:16:17.295Z,65.00
2019-05-29T03:18:43.778Z,64.60
2019-05-29T03:21:10.957Z,64.30
2019-05-29T03:23:37.668Z,64.70
2019-05-29T03:26:04.649Z,65.00
2019-05-29T03:28:32.287Z,65.30
2019-05-29T03:31:00.085Z,65.00
2019-05-29T03:33:31.039Z,65.00
2019-05-29T03:35:55.628Z,65.10
2019-05-29T03:38:22.394Z,65.40
2019-05-29T03:40:49.329Z,65.60
2019-05-29T03:43:16.118Z,65.90
2019-05-29T03:45:43.121Z,65.90
2019-05-29T03:48:10.179Z,65.10
2019-05-29T03:50:38.409Z,65.40
2019-05-29T03:53:05.154Z,64.90
2019-05-29T03:55:33.557Z,65.30
2019-05-29T03:58:00.913Z,65.40
2019-05-29T04:00:34.196Z,65.70
2019-05-29T04:02:56.658Z,65.60
2019-05-29T04:05:26.690Z,65.90
2019-05-29T04:07:53.710Z,65.90
2019-05-29T04:10:30.157Z,65.90
2019-05-29T04:12:59.244Z,66.60
2019-05-29T04:15:27.506Z,66.60
2019-05-29T04:17:56.849Z,66.20
2019-05-29T04:20:27.454Z,66.30
2019-05-29T04:22:58.612Z,66.70
2019-05-29T04:25:33.442Z,66.60
2019-05-29T04:28:05.765Z,66.90
2019-05-29T04:30:34.336Z,67.50
2019-05-29T04:33:01.292Z,67.50
2019-05-29T04:35:30.257Z,67.50
2019-05-29T04:37:56.918Z,68.30
2019-05-29T04:40:23.503Z,68.50
2019-05-29T04:42:50.219Z,68.10
2019-05-29T04:45:17.085Z,67.90
2019-05-29T04:47:43.698Z,67.70
2019-05-29T04:50:12.528Z,68.00
2019-05-29T04:52:40.399Z,67.80
2019-05-29T04:55:07.641Z,68.00
2019-05-29T04:57:34.939Z,67.90
2019-05-29T05:00:01.629Z,67.80
2019-05-29T05:02:28.928Z,67.80
2019-05-29T05:04:55.723Z,67.40
2019-05-29T05:07:22.756Z,65.70
2019-05-29T05:09:49.536Z,67.70
2019-05-29T05:12:16.458Z,67.80
2019-05-29T05:14:43.469Z,67.10
2019-05-29T05:17:25.358Z,67.80
2019-05-29T05:19:41.394Z,67.90
2019-05-29T05:22:08.190Z,68.50
2019-05-29T05:24:36.284Z,67.50
2019-05-29T05:27:03.717Z,69.10
2019-05-29T05:29:30.533Z,68.50
2019-05-29T05:31:57.197Z,68.20
2019-05-29T05:34:23.907Z,68.30
2019-05-29T05:36:51.167Z,68.00
2019-05-29T05:39:21.334Z,67.50
2019-05-29T05:41:48.085Z,67.30
2019-05-29T05:44:14.979Z,66.90
2019-05-29T05:46:41.613Z,67.30
2019-05-29T05:49:08.446Z,67.30
2019-05-29T05:51:39.218Z,67.70
2019-05-29T05:54:03.946Z,68.00
2019-05-29T05:56:33.716Z,68.50
2019-05-29T05:59:02.862Z,68.40
2019-05-29T06:01:35.891Z,68.70
2019-05-29T06:04:08.892Z,68.80
2019-05-29T06:06:36.245Z,68.10
2019-05-29T06:09:05.222Z,67.40
2019-05-29T06:11:32.216Z,67.50
2019-05-29T06:13:59.043Z,67.70
2019-05-29T06:16:25.855Z,67.50
2019-05-29T06:18:52.856Z,68.00
2019-05-29T06:21:19.958Z,67.70
2019-05-29T06:23:46.976Z,67.20
2019-05-29T06:26:14.259Z,67.50
2019-05-29T06:28:41.704Z,66.80
2019-05-29T06:31:08.551Z,65.80
2019-05-29T06:33:35.487Z,65.10
2019-05-29T06:36:02.455Z,65.30
2019-05-29T06:38:29.221Z,65.70
2019-05-29T06:40:57.294Z,65.50
2019-05-29T06:43:24.914Z,65.50
2019-05-29T06:45:53.173Z,64.60
2019-05-29T06:48:41.398Z,65.10
2019-05-29T06:50:57.404Z,65.10
2019-05-29T06:53:25.294Z,63.70
2019-05-29T06:55:54.668Z,63.80
2019-05-29T06:58:21.342Z,64.20
2019-05-29T07:00:48.290Z,63.60
2019-05-29T07:03:15.334Z,63.60
2019-05-29T07:05:46.966Z,63.70
2019-05-29T07:08:19.097Z,63.20
2019-05-29T07:10:42.720Z,62.40
2019-05-29T07:13:09.881Z,62.90
2019-05-29T07:15:38.882Z,62.50
2019-05-29T07:18:08.038Z,62.80
2019-05-29T07:21:01.111Z,63.80
2019-05-29T07:23:28.942Z,63.10
2019-05-29T07:25:56.222Z,61.20
2019-05-29T07:31:34.236Z,61.40
2019-05-29T07:34:08.876Z,60.20
2019-05-29T07:36:34.096Z,60.30
2019-05-29T07:39:05.009Z,60.10
2019-05-29T07:41:39.590Z,59.30
2019-05-29T07:44:05.495Z,59.20
2019-05-29T07:46:53.323Z,58.70
2019-05-29T07:49:38.698Z,58.90
2019-05-29T07:51:56.621Z,58.80
2019-05-29T07:54:23.458Z,59.10
2019-05-29T07:56:56.851Z,59.30
2019-05-29T07:59:23.407Z,58.70
2019-05-29T08:01:52.274Z,58.30
2019-05-29T08:04:19.249Z,58.40
2019-05-29T08:06:51.136Z,58.20
2019-05-29T08:09:18.423Z,57.30
2019-05-29T08:11:48.037Z,56.30
2019-05-29T08:14:14.997Z,57.10
2019-05-29T08:16:44.056Z,57.40
2019-05-29T08:19:11.422Z,56.20
2019-05-29T08:21:40.800Z,55.40
2019-05-29T08:24:07.450Z,55.10
2019-05-29T08:26:34.462Z,54.80
2019-05-29T08:29:01.881Z,54.10
2019-05-29T08:31:30.454Z,53.40
2019-05-29T08:33:57.503Z,52.60
2019-05-29T08:36:24.146Z,52.10
2019-05-29T08:38:51.750Z,51.90
2019-05-29T08:41:18.599Z,50.60
2019-05-29T08:43:45.706Z,50.80
2019-05-29T08:46:13.368Z,49.20
2019-05-29T08:48:39.875Z,46.70
2019-05-29T08:51:07.332Z,42.50
2019-05-29T08:53:34.801Z,41.70
2019-05-29T08:56:01.423Z,40.40
2019-05-29T08:58:28.016Z,37.60
2019-05-29T09:00:55.384Z,36.70
2019-05-29T09:03:22.090Z,38.30
2019-05-29T09:06:05.258Z,38.40
2019-05-29T09:08:19.283Z,37.40
2019-05-29T09:10:47.126Z,35.30
2019-05-29T09:13:13.792Z,36.10
2019-05-29T09:15:40.369Z,34.30
2019-05-29T09:18:07.337Z,34.20
2019-05-29T09:20:57.962Z,31.30
2019-05-29T09:23:02.810Z,29.80
2019-05-29T09:25:29.436Z,30.30
2019-05-29T09:27:55.990Z,30.30
2019-05-29T09:30:23.553Z,30.70
2019-05-29T09:32:52.835Z,30.90
2019-05-29T09:35:20.189Z,29.30
2019-05-29T09:37:47.446Z,29.20
2019-05-29T09:40:16.929Z,29.80
2019-05-29T09:42:43.978Z,31.50
2019-05-29T09:45:12.806Z,30.50
2019-05-29T09:47:39.580Z,30.60
2019-05-29T09:50:07.332Z,29.60
2019-05-29T09:52:34.054Z,30.60
2019-05-29T09:55:00.758Z,30.90
2019-05-29T09:57:27.401Z,31.70
2019-05-29T09:59:57.584Z,31.50
2019-05-29T10:02:22.730Z,33.00
2019-05-29T10:04:49.878Z,31.40
2019-05-29T10:07:16.624Z,30.80
2019-05-29T10:09:44.576Z,31.10
2019-05-29T10:12:14.825Z,31.80
2019-05-29T10:14:41.651Z,33.80
2019-05-29T10:17:12.621Z,33.80
2019-05-29T10:19:38.014Z,34.50
2019-05-29T10:22:05.680Z,35.40
2019-05-29T10:24:32.719Z,33.80
2019-05-29T10:27:01.523Z,32.90
2019-05-29T10:29:27.919Z,31.30
2019-05-29T10:31:55.180Z,30.70
2019-05-29T10:34:21.604Z,33.40
2019-05-29T10:36:52.678Z,33.40
2019-05-29T10:39:16.613Z,32.70
2019-05-29T10:41:44.617Z,34.30
2019-05-29T10:44:12.869Z,34.60
2019-05-29T10:46:39.925Z,35.30
2019-05-29T10:49:06.659Z,35.50
2019-05-29T10:51:33.219Z,37.10
2019-05-29T10:53:59.835Z,35.50
2019-05-29T10:56:28.732Z,34.40
2019-05-29T10:58:59.514Z,34.20
2019-05-29T11:01:23.557Z,34.80
2019-05-29T11:03:52.152Z,34.70
2019-05-29T11:06:18.760Z,35.30
2019-05-29T11:08:45.874Z,35.80
2019-05-29T11:11:12.440Z,35.60
2019-05-29T11:13:38.850Z,32.80
2019-05-29T11:16:07.737Z,32.30
2019-05-29T11:18:37.630Z,31.00
2019-05-29T11:21:04.390Z,30.10
2019-05-29T11:23:31.218Z,28.60
2019-05-29T11:25:58.179Z,28.70
2019-05-29T11:28:24.666Z,29.10
2019-05-29T11:30:52.302Z,29.60
2019-05-29T11:33:19.668Z,31.10
2019-05-29T11:35:57.758Z,31.40
2019-05-29T11:38:16.383Z,31.40
2019-05-29T11:40:43.737Z,32.00
2019-05-29T11:43:10.541Z,32.30
2019-05-29T11:45:36.925Z,32.90
2019-05-29T11:48:05.273Z,33.70
2019-05-29T11:50:33.394Z,33.40
2019-05-29T11:53:00.136Z,33.80
2019-05-29T11:55:26.874Z,34.30
2019-05-29T11:57:53.755Z,34.90
2019-05-29T12:00:21.510Z,34.80
2019-05-29T12:02:48.247Z,35.10
2019-05-29T12:05:15.185Z,34.50
2019-05-29T12:07:43.511Z,35.10
2019-05-29T12:10:13.249Z,35.20
2019-05-29T12:12:42.760Z,34.50
2019-05-29T12:15:15.614Z,33.80
2019-05-29T12:17:41.428Z,33.20
2019-05-29T12:20:27.280Z,33.00
2019-05-29T12:23:07.014Z,34.50
2019-05-29T12:25:15.421Z,34.80
2019-05-29T12:27:42.082Z,34.20
2019-05-29T12:30:11.581Z,34.90
2019-05-29T12:32:38.131Z,34.60
2019-05-29T12:35:06.883Z,33.90
2019-05-29T12:37:33.504Z,33.70
2019-05-29T12:40:00.040Z,34.10
2019-05-29T12:42:27.091Z,34.50
2019-05-29T12:44:53.665Z,34.00
2019-05-29T12:47:20.167Z,34.70
2019-05-29T12:49:46.637Z,34.10
2019-05-29T12:52:13.463Z,33.60
2019-05-29T12:54:40.190Z,34.10
2019-05-29T12:57:07.904Z,34.20
2019-05-29T12:59:36.626Z,34.60
2019-05-29T13:02:04.712Z,34.70
2019-05-29T13:04:31.493Z,35.80
2019-05-29T13:06:58.634Z,33.80
2019-05-29T13:09:25.138Z,33.40
2019-05-29T13:11:51.876Z,34.60
2019-05-29T13:14:18.237Z,35.00
2019-05-29T13:16:44.971Z,34.50
2019-05-29T13:19:11.417Z,34.00
2019-05-29T13:21:37.922Z,34.10
2019-05-29T13:24:11.115Z,34.20
2019-05-29T13:26:34.311Z,34.10
2019-05-29T13:29:01.688Z,33.60
2019-05-29T13:31:29.277Z,33.60
2019-05-29T13:33:55.988Z,34.20
2019-05-29T13:36:22.753Z,34.70
2019-05-29T13:38:49.455Z,34.30
2019-05-29T13:41:16.139Z,33.80
2019-05-29T13:43:42.549Z,34.50
2019-05-29T13:46:09.394Z,35.10
2019-05-29T13:48:36.515Z,34.80
2019-05-29T13:51:03.643Z,35.40
2019-05-29T13:53:30.537Z,36.00
2019-05-29T13:55:58.142Z,35.80
2019-05-29T13:58:24.749Z,37.20
2019-05-29T14:00:51.987Z,36.70
2019-05-29T14:03:18.569Z,36.50
2019-05-29T14:05:45.389Z,36.70
2019-05-29T14:08:11.856Z,37.50
2019-05-29T14:10:38.448Z,37.30
2019-05-29T14:13:05.525Z,37.20
2019-05-29T14:15:32.364Z,35.80
2019-05-29T14:18:00.562Z,36.00
2019-05-29T14:20:27.709Z,35.30
2019-05-29T14:22:54.418Z,35.30
2019-05-29T14:25:21.255Z,34.60
2019-05-29T14:27:48.193Z,35.80
2019-05-29T14:30:17.095Z,36.00
2019-05-29T14:32:44.133Z,36.10
2019-05-29T14:35:13.367Z,36.20
2019-05-29T14:37:42.468Z,35.90
2019-05-29T14:40:12.995Z,35.20
2019-05-29T14:42:39.898Z,35.40
2019-05-29T14:45:08.162Z,35.40
2019-05-29T14:47:34.920Z,36.00
2019-05-29T14:50:02.565Z,35.40
2019-05-29T14:52:31.546Z,35.60
2019-05-29T14:54:58.281Z,35.00
2019-05-29T14:57:26.312Z,35.10
2019-05-29T14:59:53.794Z,35.00
2019-05-29T15:02:23.805Z,35.30
2019-05-29T15:04:49.387Z,35.70
2019-05-29T15:07:16.212Z,36.40
2019-05-29T15:09:43.055Z,36.10
2019-05-29T15:12:10.054Z,36.60
2019-05-29T15:14:36.900Z,35.50
2019-05-29T15:17:04.910Z,35.70
2019-05-29T15:19:36.779Z,35.40
2019-05-29T15:22:07.648Z,35.00
2019-05-29T15:24:35.169Z,35.10
2019-05-29T15:27:01.990Z,35.00
2019-05-29T15:29:30.235Z,35.00
2019-05-29T15:31:56.765Z,34.40
2019-05-29T15:34:23.453Z,33.20
2019-05-29T15:36:52.625Z,34.20
2019-05-29T15:39:19.206Z,34.60
2019-05-29T15:41:45.732Z,33.70
2019-05-29T15:44:15.090Z,34.80
2019-05-29T15:46:42.861Z,35.30
2019-05-29T15:49:10.970Z,35.80
2019-05-29T15:51:37.828Z,36.20
2019-05-29T15:54:04.398Z,35.40
2019-05-29T15:56:31.068Z,35.50
2019-05-29T15:58:57.739Z,35.40
2019-05-29T16:01:24.497Z,35.30
2019-05-29T16:03:51.869Z,35.20
2019-05-29T16:06:18.390Z,35.90
2019-05-29T16:08:44.998Z,35.30
2019-05-29T16:11:12.875Z,34.40
2019-05-29T16:13:40.648Z,35.00
2019-05-29T16:16:09.397Z,35.30
2019-05-29T16:18:35.801Z,35.80
2019-05-29T16:21:02.807Z,35.20
2019-05-29T16:23:35.674Z,33.20
2019-05-29T16:25:57.993Z,31.70
2019-05-29T16:28:24.675Z,31.00
2019-05-29T16:30:51.246Z,31.60
2019-05-29T16:33:21.006Z,31.90
2019-05-29T16:35:48.176Z,32.40
2019-05-29T16:38:15.976Z,32.60
2019-05-29T16:40:42.860Z,33.20
2019-05-29T16:43:11.901Z,33.50
2019-05-29T16:45:38.828Z,33.40
2019-05-29T16:48:05.608Z,33.20
2019-05-29T16:50:34.088Z,34.00
2019-05-29T16:53:04.991Z,34.30
2019-05-29T16:55:33.683Z,34.50
2019-05-29T16:58:03.715Z,34.50
2019-05-29T17:00:34.952Z,34.60
2019-05-29T17:03:02.627Z,34.90
2019-05-29T17:05:33.303Z,35.40
2019-05-29T17:08:02.796Z,35.90
2019-05-29T17:10:38.067Z,36.00
2019-05-29T17:13:05.307Z,36.40
2019-05-29T17:15:33.279Z,36.60
2019-05-29T17:18:00.531Z,36.70
2019-05-29T17:20:38.660Z,37.30
2019-05-29T17:23:05.422Z,36.70
2019-05-29T17:25:32.012Z,36.20
2019-05-29T17:27:58.748Z,36.10
2019-05-29T17:30:29.464Z,36.70
2019-05-29T17:32:56.186Z,40.40
2019-05-29T17:35:23.167Z,43.00
2019-05-29T17:37:49.958Z,43.60
2019-05-29T17:40:16.997Z,44.30
2019-05-29T17:42:44.025Z,45.30
2019-05-29T17:45:12.721Z,46.00
2019-05-29T17:47:40.025Z,46.70
2019-05-29T17:50:08.620Z,47.00
2019-05-29T17:52:37.817Z,47.20
2019-05-29T17:55:08.911Z,47.50
2019-05-29T17:57:35.951Z,47.60
2019-05-29T18:00:07.870Z,47.70
2019-05-29T18:02:50.856Z,47.70
2019-05-29T18:05:07.609Z,47.90
2019-05-29T18:07:36.519Z,48.30
2019-05-29T18:10:06.354Z,48.90
2019-05-29T18:12:33.133Z,49.20
2019-05-29T18:15:00.080Z,49.50
2019-05-29T18:17:27.757Z,49.70
2019-05-29T18:19:54.507Z,49.30
2019-05-29T18:22:21.643Z,48.40
2019-05-29T18:24:48.353Z,48.40
2019-05-29T18:27:14.916Z,48.90
2019-05-29T18:29:41.686Z,49.10
2019-05-29T18:32:08.381Z,48.90
2019-05-29T18:34:34.904Z,49.10
2019-05-29T18:37:01.551Z,49.40
2019-05-29T18:39:28.460Z,49.70
2019-05-29T18:41:55.466Z,50.30
2019-05-29T18:44:22.814Z,50.20
2019-05-29T18:46:51.681Z,49.90
2019-05-29T18:49:18.445Z,49.60
2019-05-29T18:51:45.412Z,49.40
2019-05-29T18:54:12.244Z,49.40
2019-05-29T18:56:39.188Z,49.50
2019-05-29T18:59:07.189Z,49.70
2019-05-29T19:01:34.436Z,49.60
2019-05-29T19:04:01.418Z,49.60
2019-05-29T19:06:29.651Z,49.20
2019-05-29T19:08:56.580Z,49.10
2019-05-29T19:11:23.857Z,49.00
2019-05-29T19:13:52.500Z,48.90
2019-05-29T19:16:19.189Z,49.80
2019-05-29T19:18:45.842Z,49.50
2019-05-29T19:21:14.430Z,49.60
2019-05-29T19:23:40.988Z,49.40
2019-05-29T19:26:07.622Z,49.40
2019-05-29T19:28:34.700Z,49.10
2019-05-29T19:31:01.371Z,49.10
2019-05-29T19:33:29.318Z,49.30
2019-05-29T19:35:56.460Z,49.60
2019-05-29T19:38:23.748Z,49.70
2019-05-29T19:40:51.388Z,49.80
2019-05-29T19:43:19.875Z,49.90
2019-05-29T19:45:46.615Z,49.50
2019-05-29T19:48:13.487Z,49.90
2019-05-29T19:50:40.401Z,50.00
2019-05-29T19:53:09.839Z,50.00
2019-05-29T19:55:44.625Z,49.90
2019-05-29T19:58:12.417Z,49.80
2019-05-29T20:00:47.540Z,49.70
2019-05-29T20:03:20.164Z,49.70
2019-05-29T20:05:47.370Z,49.70
2019-05-29T20:08:13.852Z,49.70
2019-05-29T20:10:40.526Z,49.90
2019-05-29T20:13:07.773Z,49.90
2019-05-29T20:15:34.495Z,49.90
2019-05-29T20:18:01.610Z,50.10
2019-05-29T20:20:28.511Z,50.20
2019-05-29T20:22:55.283Z,50.10
2019-05-29T20:25:28.842Z,50.40
2019-05-29T20:28:06.098Z,50.40
2019-05-29T20:30:24.802Z,50.50
2019-05-29T20:32:53.307Z,50.50
2019-05-29T20:35:25.122Z,50.60
2019-05-29T20:37:52.202Z,51.00
2019-05-29T20:40:19.029Z,50.80
2019-05-29T20:42:46.280Z,50.90
2019-05-29T20:45:16.709Z,51.30
2019-05-29T20:47:47.160Z,51.10
2019-05-29T20:50:14.622Z,51.10
2019-05-29T20:52:44.082Z,51.10
2019-05-29T20:55:13.697Z,51.70
2019-05-29T20:57:47.404Z,52.00
2019-05-29T21:00:16.446Z,52.40
2019-05-29T21:02:43.276Z,52.60
2019-05-29T21:05:10.410Z,52.20
2019-05-29T21:07:37.226Z,51.30
2019-05-29T21:10:04.477Z,51.30
2019-05-29T21:12:31.257Z,50.70
2019-05-29T21:15:15.840Z,50.40
2019-05-29T21:17:43.962Z,51.20
2019-05-29T21:20:12.257Z,51.50
2019-05-29T21:22:40.535Z,51.50
2019-05-29T21:25:12.924Z,51.90
2019-05-29T21:27:37.547Z,52.00
2019-05-29T21:30:12.353Z,52.10
2019-05-29T21:32:40.161Z,52.30
2019-05-29T21:35:07.389Z,52.40
2019-05-29T21:37:38.484Z,52.50
2019-05-29T21:40:07.458Z,52.60
2019-05-29T21:42:34.477Z,52.90
2019-05-29T21:45:01.547Z,53.30
2019-05-29T21:47:30.199Z,53.50
2019-05-29T21:49:59.001Z,53.60
2019-05-29T21:52:26.085Z,53.60
2019-05-29T21:54:52.804Z,53.70
2019-05-29T21:57:19.855Z,53.80
2019-05-29T21:59:46.312Z,53.70
2019-05-29T22:02:13.007Z,53.90
2019-05-29T22:04:40.344Z,53.80
2019-05-29T22:07:07.308Z,53.70
2019-05-29T22:09:33.991Z,53.30
2019-05-29T22:12:00.551Z,53.10
2019-05-29T22:14:27.444Z,53.30
2019-05-29T22:16:54.967Z,53.30
2019-05-29T22:19:21.951Z,53.50
2019-05-29T22:21:49.067Z,53.80
2019-05-29T22:24:15.947Z,53.50
2019-05-29T22:26:42.679Z,53.90
2019-05-29T22:29:17.811Z,53.70
2019-05-29T22:31:40.429Z,53.20
2019-05-29T22:34:07.773Z,53.00
2019-05-29T22:36:36.328Z,53.20
2019-05-29T22:39:04.729Z,53.40
2019-05-29T22:41:31.667Z,54.40
2019-05-29T22:43:59.628Z,53.80
2019-05-29T22:46:26.638Z,53.90
2019-05-29T22:48:53.725Z,53.80
2019-05-29T22:51:21.923Z,54.30
2019-05-29T22:53:49.319Z,54.50
2019-05-29T22:56:16.362Z,54.40
2019-05-29T22:58:44.118Z,54.70
2019-05-29T23:01:13.935Z,54.70
2019-05-29T23:03:40.747Z,54.30
2019-05-29T23:06:07.648Z,54.00
2019-05-29T23:08:34.594Z,54.60
2019-05-29T23:11:02.999Z,54.80
2019-05-29T23:13:29.765Z,54.50
2019-05-29T23:15:56.755Z,54.70
2019-05-29T23:18:23.341Z,54.00
2019-05-29T23:20:50.020Z,54.30
2019-05-29T23:23:17.023Z,54.40
2019-05-29T23:25:44.075Z,54.60
2019-05-29T23:28:10.984Z,54.60
2019-05-29T23:30:37.866Z,54.60
2019-05-29T23:33:04.576Z,55.40
2019-05-29T23:35:31.891Z,56.00
2019-05-29T23:37:59.138Z,56.70
2019-05-29T23:40:26.149Z,57.00
2019-05-29T23:42:53.341Z,57.10
2019-05-29T23:45:20.339Z,57.40
2019-05-29T23:47:47.129Z,57.80
2019-05-29T23:50:14.408Z,57.90
2019-05-29T23:52:41.138Z,58.40
2019-05-29T23:55:09.156Z,58.50
2019-05-29T23:57:36.387Z,58.90
